createdAt,value
2022-07-26T00:00:13.443Z,100033.00
2022-07-26T00:02:47.732Z,100035.12
2022-07-26T00:05:16.634Z,100023.06
2022-07-26T00:07:44.347Z,100026.13
2022-07-26T00:10:11.865Z,100024.97
2022-07-26T00:12:39.255Z,100033.31
2022-07-26T00:15:08.751Z,100026.75
2022-07-26T00:17:35.626Z,100025.94
2022-07-26T00:20:02.581Z,100018.91
2022-07-26T00:22:35.555Z,100018.34
2022-07-26T00:25:06.175Z,100019.38
2022-07-26T00:27:37.239Z,100027.47
2022-07-26T00:30:10.090Z,100023.66
2022-07-26T00:32:38.244Z,100022.81
2022-07-26T00:35:06.973Z,100024.94
2022-07-26T00:37:33.638Z,100019.78
2022-07-26T00:40:00.737Z,100017.34
2022-07-26T00:42:27.425Z,100019.44
2022-07-26T00:44:54.225Z,100006.91
2022-07-26T00:47:21.210Z,100002.00
2022-07-26T00:49:47.903Z,100016.41
2022-07-26T00:52:14.896Z,100006.91
2022-07-26T00:54:45.584Z,100009.84
2022-07-26T00:57:14.938Z,99996.03
2022-07-26T00:59:43.047Z,99995.22
2022-07-26T01:02:10.467Z,99980.25
2022-07-26T01:04:37.304Z,99994.88
2022-07-26T01:07:14.977Z,99997.81
2022-07-26T01:09:42.822Z,99997.38
2022-07-26T01:12:09.982Z,100006.87
2022-07-26T01:14:36.932Z,99997.84
2022-07-26T01:17:03.780Z,100003.25
2022-07-26T01:19:30.808Z,100007.50
2022-07-26T01:21:57.492Z,100006.34
2022-07-26T01:24:24.139Z,100011.41
2022-07-26T01:26:51.128Z,100000.25
2022-07-26T01:29:17.988Z,99994.63
2022-07-26T01:31:44.801Z,99997.81
2022-07-26T01:34:12.133Z,100000.03
2022-07-26T01:36:39.799Z,99997.22
2022-07-26T01:39:07.084Z,99999.34
2022-07-26T01:41:37.964Z,99995.50
2022-07-26T01:44:07.426Z,99998.19
2022-07-26T01:46:35.996Z,100007.56
2022-07-26T01:49:03.359Z,99989.88
2022-07-26T01:51:30.515Z,99993.87
2022-07-26T01:53:57.470Z,100000.66
2022-07-26T01:56:24.173Z,99990.25
2022-07-26T01:58:50.796Z,99986.41
2022-07-26T02:01:38.037Z,100003.72
2022-07-26T02:04:05.114Z,100002.78
2022-07-26T02:06:32.131Z,99986.75
2022-07-26T02:09:00.614Z,99995.91
2022-07-26T02:11:28.933Z,100014.16
2022-07-26T02:13:55.596Z,99984.88
2022-07-26T02:16:22.547Z,99987.81
2022-07-26T02:18:49.669Z,99999.78
2022-07-26T02:21:16.333Z,99998.34
2022-07-26T02:23:43.458Z,99991.31
2022-07-26T02:26:10.388Z,99995.66
2022-07-26T02:28:37.092Z,99995.44
2022-07-26T02:31:03.808Z,99997.31
2022-07-26T02:33:30.823Z,100006.19
2022-07-26T02:35:57.578Z,100007.00
2022-07-26T02:38:24.478Z,100007.84
2022-07-26T02:40:52.866Z,99984.56
2022-07-26T02:43:19.902Z,99981.50
2022-07-26T02:46:00.869Z,100000.88
2022-07-26T02:48:30.909Z,99994.94
2022-07-26T02:50:57.803Z,99998.84
2022-07-26T02:53:24.475Z,99989.81
2022-07-26T02:55:51.673Z,100000.72
2022-07-26T02:58:21.353Z,100000.28
2022-07-26T03:00:48.152Z,99994.88
2022-07-26T03:03:15.179Z,100012.91
2022-07-26T03:05:42.023Z,99992.69
2022-07-26T03:08:08.759Z,99989.47
2022-07-26T03:10:35.734Z,99995.72
2022-07-26T03:13:02.472Z,100001.09
2022-07-26T03:15:29.307Z,100003.56
2022-07-26T03:17:56.896Z,99991.09
2022-07-26T03:20:23.773Z,100005.09
2022-07-26T03:22:50.426Z,100000.09
2022-07-26T03:25:17.421Z,99994.25
2022-07-26T03:27:44.227Z,99997.22
2022-07-26T03:30:11.895Z,99993.91
2022-07-26T03:32:38.945Z,99992.38
2022-07-26T03:35:07.489Z,99987.28
2022-07-26T03:37:46.272Z,99999.31
2022-07-26T03:40:15.587Z,99985.63
2022-07-26T03:42:42.501Z,99998.53
2022-07-26T03:45:09.672Z,99993.22
2022-07-26T03:47:37.360Z,99989.72
2022-07-26T03:50:05.671Z,99988.53
2022-07-26T03:52:32.564Z,99994.34
2022-07-26T03:54:59.978Z,99999.53
2022-07-26T03:57:28.229Z,99995.09
2022-07-26T03:59:55.897Z,99995.47
2022-07-26T04:02:22.980Z,100001.12
2022-07-26T04:04:50.000Z,100008.47
2022-07-26T04:07:16.740Z,99999.69
2022-07-26T04:09:43.943Z,100011.03
2022-07-26T04:12:10.832Z,100016.72
2022-07-26T04:14:38.592Z,100009.41
2022-07-26T04:17:05.371Z,100008.91
2022-07-26T04:19:32.389Z,100018.75
2022-07-26T04:22:03.685Z,100013.84
2022-07-26T04:24:30.339Z,100021.62
2022-07-26T04:26:57.392Z,100004.38
2022-07-26T04:29:24.054Z,100008.72
2022-07-26T04:31:50.729Z,100020.72
2022-07-26T04:34:17.247Z,100019.34
2022-07-26T04:36:44.239Z,100016.94
2022-07-26T04:39:11.210Z,100011.75
2022-07-26T04:41:37.908Z,100011.13
2022-07-26T04:44:05.337Z,100019.22
2022-07-26T04:46:32.277Z,100028.38
2022-07-26T04:48:58.987Z,100023.34
2022-07-26T04:51:26.534Z,100029.75
2022-07-26T04:53:53.188Z,100032.09
2022-07-26T04:56:19.851Z,100027.84
2022-07-26T04:58:46.899Z,100025.06
2022-07-26T05:01:13.572Z,100034.19
2022-07-26T05:03:40.619Z,100033.09
2022-07-26T05:06:07.712Z,100022.72
2022-07-26T05:08:34.427Z,100030.34
2022-07-26T05:11:01.137Z,100035.22
2022-07-26T05:13:30.570Z,100035.50
2022-07-26T05:15:59.222Z,100036.00
2022-07-26T05:18:26.378Z,100046.59
2022-07-26T05:20:53.410Z,100043.34
2022-07-26T05:23:20.620Z,100040.66
2022-07-26T05:25:47.775Z,100037.69
2022-07-26T05:28:14.866Z,100040.97
2022-07-26T05:30:41.700Z,100026.31
2022-07-26T05:33:08.483Z,100030.94
2022-07-26T05:35:35.455Z,100036.34
2022-07-26T05:38:02.271Z,100034.19
2022-07-26T05:40:29.224Z,100023.84
2022-07-26T05:42:56.328Z,100032.88
2022-07-26T05:45:23.054Z,100043.19
2022-07-26T05:47:50.869Z,100034.25
2022-07-26T05:50:17.968Z,100039.16
2022-07-26T05:52:44.689Z,100032.16
2022-07-26T05:55:11.983Z,100030.28
2022-07-26T05:57:42.064Z,100034.13
2022-07-26T06:00:09.753Z,100028.97
2022-07-26T06:02:38.688Z,100036.09
2022-07-26T06:05:05.936Z,100029.31
2022-07-26T06:07:34.069Z,100029.69
2022-07-26T06:10:00.720Z,100031.91
2022-07-26T06:12:27.688Z,100028.69
2022-07-26T06:14:54.301Z,100024.38
2022-07-26T06:17:21.153Z,100026.66
2022-07-26T06:19:48.363Z,100031.56
2022-07-26T06:22:15.388Z,100025.59
2022-07-26T06:24:42.280Z,100025.31
2022-07-26T06:27:09.267Z,100024.22
2022-07-26T06:29:36.023Z,100013.34
2022-07-26T06:32:02.837Z,100024.47
2022-07-26T06:34:30.065Z,100017.38
2022-07-26T06:36:56.872Z,100013.25
2022-07-26T06:39:23.655Z,100023.00
2022-07-26T06:41:50.813Z,100007.25
2022-07-26T06:44:22.648Z,100008.44
2022-07-26T06:46:49.905Z,99998.06
2022-07-26T06:49:21.937Z,100013.84
2022-07-26T06:51:49.303Z,100004.03
2022-07-26T06:54:16.045Z,100006.47
2022-07-26T06:56:43.329Z,100003.47
2022-07-26T06:59:10.264Z,100013.22
2022-07-26T07:01:55.672Z,99990.72
2022-07-26T07:04:24.379Z,99999.91
2022-07-26T07:06:51.138Z,99987.94
2022-07-26T07:09:19.538Z,99999.91
2022-07-26T07:11:49.266Z,99993.41
2022-07-26T07:14:19.037Z,100002.09
2022-07-26T07:16:46.069Z,99999.66
2022-07-26T07:19:13.080Z,99992.91
2022-07-26T07:21:39.896Z,99986.44
2022-07-26T07:24:07.456Z,99989.19
2022-07-26T07:26:34.378Z,99968.25
2022-07-26T07:29:04.086Z,99986.25
2022-07-26T07:31:49.054Z,99984.91
2022-07-26T07:34:18.132Z,99982.75
2022-07-26T07:36:47.137Z,99979.25
2022-07-26T07:39:17.524Z,99973.03
2022-07-26T07:41:46.345Z,99976.81
2022-07-26T07:44:14.036Z,99965.44
2022-07-26T07:46:40.895Z,99982.81
2022-07-26T07:49:08.081Z,99980.66
2022-07-26T07:51:36.264Z,99976.31
2022-07-26T07:54:05.677Z,99963.84
2022-07-26T07:56:33.586Z,99979.06
2022-07-26T07:59:00.735Z,99988.84
2022-07-26T08:01:39.586Z,99965.50
2022-07-26T08:04:09.256Z,99995.13
2022-07-26T08:06:37.056Z,99994.84
2022-07-26T08:09:05.577Z,99994.88
2022-07-26T08:11:34.268Z,99984.81
2022-07-26T08:14:01.796Z,99984.81
2022-07-26T08:16:28.774Z,99997.84
2022-07-26T08:18:57.730Z,100005.19
2022-07-26T08:21:35.884Z,99997.03
2022-07-26T08:24:03.294Z,100003.53
2022-07-26T08:26:30.131Z,99986.22
2022-07-26T08:29:09.885Z,99981.59
2022-07-26T08:31:37.052Z,99982.97
2022-07-26T08:34:03.837Z,99995.72
2022-07-26T08:36:32.596Z,99988.13
2022-07-26T08:39:00.963Z,99991.91
2022-07-26T08:41:28.437Z,99988.94
2022-07-26T08:43:55.116Z,99988.41
2022-07-26T08:46:25.428Z,99990.00
2022-07-26T08:48:54.039Z,99992.19
2022-07-26T08:51:22.888Z,99991.94
2022-07-26T08:53:54.265Z,99982.69
2022-07-26T08:56:21.135Z,99991.13
2022-07-26T08:58:47.935Z,99979.69
2022-07-26T09:01:15.296Z,99968.28
2022-07-26T09:03:43.425Z,99986.50
2022-07-26T09:06:19.054Z,99993.25
2022-07-26T09:08:49.579Z,99981.84
2022-07-26T09:11:33.183Z,99974.25
2022-07-26T09:14:03.309Z,99975.59
2022-07-26T09:16:30.632Z,99978.56
2022-07-26T09:19:22.332Z,99979.41
2022-07-26T09:21:49.887Z,99967.69
2022-07-26T09:24:36.740Z,99955.22
2022-07-26T09:27:06.402Z,99960.63
2022-07-26T09:29:46.301Z,99957.91
2022-07-26T09:32:17.179Z,99960.66
2022-07-26T09:34:52.620Z,99947.03
2022-07-26T09:37:34.942Z,99951.38
2022-07-26T09:40:05.257Z,99944.84
2022-07-26T09:42:32.438Z,99943.75
2022-07-26T09:44:59.697Z,99942.13
2022-07-26T09:47:37.886Z,99940.50
2022-07-26T09:50:16.570Z,99936.16
2022-07-26T09:53:17.637Z,99950.28
2022-07-26T09:55:45.249Z,99952.72
2022-07-26T09:58:17.496Z,99949.44
2022-07-26T10:00:44.933Z,99954.31
2022-07-26T10:03:12.849Z,99949.97
2022-07-26T10:05:39.762Z,99957.84
2022-07-26T10:08:07.978Z,99957.84
2022-07-26T10:10:40.237Z,99952.97
2022-07-26T10:13:08.557Z,99961.66
2022-07-26T10:15:46.600Z,99950.78
2022-07-26T10:18:39.227Z,99948.84
2022-07-26T10:21:16.843Z,99958.06
2022-07-26T10:23:49.062Z,99939.56
2022-07-26T10:26:45.607Z,99945.81
2022-07-26T10:29:18.289Z,99949.63
2022-07-26T10:32:00.541Z,99943.88
2022-07-26T10:34:40.777Z,99940.06
2022-07-26T10:37:21.655Z,99938.94
2022-07-26T10:39:48.568Z,99955.53
2022-07-26T10:42:15.509Z,99923.72
2022-07-26T10:44:45.276Z,99941.94
2022-07-26T10:47:18.549Z,99940.56
2022-07-26T10:49:57.437Z,99952.25
2022-07-26T10:52:28.029Z,99940.56
2022-07-26T10:55:01.185Z,99933.19
2022-07-26T10:57:33.778Z,99934.00
2022-07-26T11:00:02.127Z,99937.75
2022-07-26T11:02:32.716Z,99929.28
2022-07-26T11:05:12.641Z,99929.28
2022-07-26T11:07:55.399Z,99939.31
2022-07-26T11:10:27.716Z,99928.69
2022-07-26T11:12:59.689Z,99925.69
2022-07-26T11:15:26.527Z,99931.91
2022-07-26T11:18:06.314Z,99924.28
2022-07-26T11:20:33.418Z,99936.78
2022-07-26T11:23:00.259Z,99920.25
2022-07-26T11:25:27.099Z,99935.16
2022-07-26T11:28:07.294Z,99917.25
2022-07-26T11:30:35.103Z,99926.72
2022-07-26T11:33:02.140Z,99914.75
2022-07-26T11:35:30.002Z,99915.25
2022-07-26T11:38:11.235Z,99912.25
2022-07-26T11:40:47.177Z,99915.47
2022-07-26T11:43:14.847Z,99911.34
2022-07-26T11:45:41.879Z,99907.81
2022-07-26T11:48:08.624Z,99897.50
2022-07-26T11:50:35.353Z,99915.41
2022-07-26T11:53:02.315Z,99916.47
2022-07-26T11:55:30.571Z,99905.53
2022-07-26T11:58:05.066Z,99905.59
2022-07-26T12:00:32.180Z,99912.31
2022-07-26T12:02:59.354Z,99902.19
2022-07-26T12:05:27.636Z,99901.06
2022-07-26T12:07:57.040Z,99897.25
2022-07-26T12:10:24.340Z,99889.09
2022-07-26T12:13:06.647Z,99895.06
2022-07-26T12:15:50.275Z,99909.22
2022-07-26T12:18:29.050Z,99900.19
2022-07-26T12:21:02.157Z,99894.97
2022-07-26T12:23:42.468Z,99886.50
2022-07-26T12:26:27.890Z,99895.72
2022-07-26T12:28:56.008Z,99883.19
2022-07-26T12:31:26.123Z,99885.13
2022-07-26T12:33:53.026Z,99888.88
2022-07-26T12:36:28.434Z,99882.59
2022-07-26T12:39:00.439Z,99895.59
2022-07-26T12:41:31.129Z,99887.69
2022-07-26T12:43:59.639Z,99887.69
2022-07-26T12:46:26.544Z,99879.81
2022-07-26T12:48:56.831Z,99883.06
2022-07-26T12:51:27.466Z,99876.81
2022-07-26T12:53:54.959Z,99864.84
2022-07-26T12:56:21.898Z,99886.63
2022-07-26T12:58:49.413Z,99883.31
2022-07-26T13:01:17.250Z,99877.28
2022-07-26T13:03:44.340Z,99880.22
2022-07-26T13:06:12.691Z,99876.69
2022-07-26T13:08:41.783Z,99879.94
2022-07-26T13:11:08.765Z,99881.84
2022-07-26T13:13:35.860Z,99868.25
2022-07-26T13:16:09.604Z,99858.69
2022-07-26T13:18:39.192Z,99870.06
2022-07-26T13:21:06.066Z,99864.03
2022-07-26T13:23:32.821Z,99849.34
2022-07-26T13:26:03.616Z,99858.50
2022-07-26T13:28:31.073Z,99852.47
2022-07-26T13:30:57.798Z,99849.19
2022-07-26T13:33:24.813Z,99849.19
2022-07-26T13:35:51.533Z,99850.00
2022-07-26T13:38:19.694Z,99843.75
2022-07-26T13:40:46.691Z,99844.75
2022-07-26T13:43:13.365Z,99840.94
2022-07-26T13:45:40.131Z,99832.25
2022-07-26T13:48:07.697Z,99828.19
2022-07-26T13:50:34.514Z,99834.09
2022-07-26T13:53:01.312Z,99826.72
2022-07-26T13:55:28.576Z,99827.22
2022-07-26T13:57:57.262Z,99827.16
2022-07-26T14:00:29.098Z,99829.31
2022-07-26T14:03:00.313Z,99829.50
2022-07-26T14:05:29.789Z,99828.41
2022-07-26T14:07:56.839Z,99823.47
2022-07-26T14:10:24.721Z,99821.56
2022-07-26T14:12:52.106Z,99812.84
2022-07-26T14:15:22.766Z,99824.81
2022-07-26T14:17:51.598Z,99819.63
2022-07-26T14:20:18.787Z,99818.31
2022-07-26T14:22:45.828Z,99809.63
2022-07-26T14:25:12.612Z,99808.78
2022-07-26T14:27:39.384Z,99812.34
2022-07-26T14:30:07.066Z,99817.22
2022-07-26T14:32:34.001Z,99818.84
2022-07-26T14:35:00.708Z,99821.03
2022-07-26T14:37:44.545Z,99813.97
2022-07-26T14:40:17.912Z,99822.66
2022-07-26T14:42:45.971Z,99829.75
2022-07-26T14:45:14.164Z,99827.88
2022-07-26T14:47:41.072Z,99826.50
2022-07-26T14:50:09.531Z,99829.75
2022-07-26T14:52:47.634Z,99830.84
2022-07-26T14:55:19.192Z,99827.03
2022-07-26T14:57:49.813Z,99816.63
2022-07-26T15:00:17.938Z,99809.53
2022-07-26T15:02:46.264Z,99817.72
2022-07-26T15:05:13.930Z,99798.16
2022-07-26T15:07:42.092Z,99807.38
2022-07-26T15:10:10.921Z,99801.72
2022-07-26T15:12:38.008Z,99804.44
2022-07-26T15:15:06.617Z,99802.03
2022-07-26T15:17:33.316Z,99794.94
2022-07-26T15:20:00.190Z,99802.81
2022-07-26T15:22:27.277Z,99800.38
2022-07-26T15:24:53.922Z,99796.56
2022-07-26T15:27:20.754Z,99784.62
2022-07-26T15:29:49.641Z,99793.75
2022-07-26T15:32:16.612Z,99784.53
2022-07-26T15:34:43.386Z,99796.28
2022-07-26T15:37:10.436Z,99799.78
2022-07-26T15:39:37.201Z,99782.47
2022-07-26T15:42:07.538Z,99794.44
2022-07-26T15:44:37.517Z,99800.38
2022-07-26T15:47:05.266Z,99798.75
2022-07-26T15:49:33.121Z,99792.88
2022-07-26T15:52:01.083Z,99805.63
2022-07-26T15:54:28.028Z,99803.19
2022-07-26T15:56:54.842Z,99790.66
2022-07-26T15:59:21.903Z,99796.63
2022-07-26T16:01:49.146Z,99799.94
2022-07-26T16:04:16.244Z,99791.75
2022-07-26T16:06:43.086Z,99795.06
2022-07-26T16:09:19.084Z,99803.25
2022-07-26T16:11:47.165Z,99787.25
2022-07-26T16:14:14.702Z,99800.03
2022-07-26T16:16:41.537Z,99798.62
2022-07-26T16:19:08.859Z,99805.97
2022-07-26T16:21:37.103Z,99797.88
2022-07-26T16:24:07.102Z,99809.00
2022-07-26T16:26:35.615Z,99814.47
2022-07-26T16:29:02.852Z,99813.66
2022-07-26T16:31:31.221Z,99817.47
2022-07-26T16:33:58.422Z,99827.59
2022-07-26T16:36:25.631Z,99822.12
2022-07-26T16:38:52.385Z,99829.81
2022-07-26T16:41:19.540Z,99821.38
2022-07-26T16:43:46.349Z,99816.50
2022-07-26T16:46:13.410Z,99822.56
2022-07-26T16:48:40.513Z,99823.66
2022-07-26T16:51:07.381Z,99811.72
2022-07-26T16:53:34.221Z,99824.97
2022-07-26T16:56:01.248Z,99813.31
2022-07-26T16:58:27.962Z,99817.41
2022-07-26T17:00:55.011Z,99824.53
2022-07-26T17:03:22.065Z,99804.25
2022-07-26T17:05:48.753Z,99817.87
2022-07-26T17:08:15.993Z,99818.97
2022-07-26T17:10:43.332Z,99826.06
2022-07-26T17:13:12.934Z,99815.75
2022-07-26T17:15:39.690Z,99821.47
2022-07-26T17:18:06.675Z,99823.38
2022-07-26T17:20:33.405Z,99817.41
2022-07-26T17:23:00.208Z,99821.53
2022-07-26T17:25:27.443Z,99815.06
2022-07-26T17:27:54.244Z,99822.41
2022-07-26T17:30:21.091Z,99819.72
2022-07-26T17:32:48.129Z,99830.06
2022-07-26T17:35:15.021Z,99824.19
2022-07-26T17:37:41.840Z,99820.41
2022-07-26T17:40:10.996Z,99822.06
2022-07-26T17:42:38.667Z,99818.34
2022-07-26T17:45:06.554Z,99820.00
2022-07-26T17:47:33.607Z,99829.53
2022-07-26T17:50:34.094Z,99829.03
2022-07-26T17:52:50.730Z,99837.22
2022-07-26T17:55:20.867Z,99840.53
2022-07-26T17:57:49.619Z,99834.56
2022-07-26T18:00:19.825Z,99835.13
2022-07-26T18:02:47.767Z,99841.16
2022-07-26T18:05:14.853Z,99841.72
2022-07-26T18:07:41.895Z,99838.75
2022-07-26T18:10:11.106Z,99851.03
2022-07-26T18:12:38.185Z,99854.34
2022-07-26T18:15:07.029Z,99853.00
2022-07-26T18:17:34.182Z,99854.66
2022-07-26T18:20:00.887Z,99855.22
2022-07-26T18:22:27.584Z,99865.59
2022-07-26T18:24:54.722Z,99854.19
2022-07-26T18:27:22.314Z,99861.00
2022-07-26T18:29:49.419Z,99861.03
2022-07-26T18:32:16.460Z,99854.28
2022-07-26T18:34:51.549Z,99861.91
2022-07-26T18:37:20.771Z,99865.75
2022-07-26T18:39:48.052Z,99873.97
2022-07-26T18:42:15.137Z,99865.00
2022-07-26T18:44:42.255Z,99867.50
2022-07-26T18:47:09.481Z,99860.47
2022-07-26T18:49:36.315Z,99857.22
2022-07-26T18:52:08.552Z,99850.97
2022-07-26T18:54:36.311Z,99862.94
2022-07-26T18:57:04.804Z,99864.31
2022-07-26T18:59:31.879Z,99862.44
2022-07-26T19:02:00.058Z,99866.53
2022-07-26T19:04:28.341Z,99860.03
2022-07-26T19:06:55.318Z,99861.94
2022-07-26T19:09:22.029Z,99859.50
2022-07-26T19:11:49.217Z,99859.00
2022-07-26T19:14:15.959Z,99860.94
2022-07-26T19:16:42.649Z,99863.94
2022-07-26T19:19:10.285Z,99863.69
2022-07-26T19:21:37.987Z,99860.69
2022-07-26T19:24:05.325Z,99860.97
2022-07-26T19:26:32.342Z,99871.56
2022-07-26T19:28:59.185Z,99859.38
2022-07-26T19:31:26.036Z,99872.69
2022-07-26T19:33:53.313Z,99871.59
2022-07-26T19:36:25.817Z,99871.06
2022-07-26T19:38:54.324Z,99873.78
2022-07-26T19:41:23.794Z,99874.88
2022-07-26T19:43:50.612Z,99883.03
2022-07-26T19:46:17.650Z,99878.66
2022-07-26T19:48:44.711Z,99882.19
2022-07-26T19:51:11.682Z,99890.88
2022-07-26T19:53:38.691Z,99884.66
2022-07-26T19:56:06.237Z,99895.22
2022-07-26T19:58:33.706Z,99889.53
2022-07-26T20:01:00.962Z,99894.41
2022-07-26T20:03:28.155Z,99887.34
2022-07-26T20:05:56.849Z,99888.44
2022-07-26T20:08:24.589Z,99896.03
2022-07-26T20:10:52.169Z,99897.66
2022-07-26T20:13:19.008Z,99902.81
2022-07-26T20:15:47.295Z,99894.37
2022-07-26T20:18:14.267Z,99896.84
2022-07-26T20:20:41.103Z,99903.06
2022-07-26T20:23:10.888Z,99902.50
2022-07-26T20:25:37.952Z,99890.56
2022-07-26T20:28:04.957Z,99907.94
2022-07-26T20:30:31.763Z,99912.00
2022-07-26T20:32:58.828Z,99890.78
2022-07-26T20:35:25.547Z,99886.75
2022-07-26T20:37:52.197Z,99895.41
2022-07-26T20:40:19.240Z,99898.38
2022-07-26T20:42:50.103Z,99889.34
2022-07-26T20:58:27.124Z,99887.84
2022-07-26T21:00:54.343Z,99887.84
2022-07-26T21:03:21.154Z,99895.88
2022-07-26T21:05:47.857Z,99894.25
2022-07-26T21:08:14.886Z,99891.53
2022-07-26T21:17:57.481Z,99885.19
2022-07-26T21:20:24.811Z,99886.81
2022-07-26T21:22:51.475Z,99887.34
2022-07-26T21:25:18.137Z,99891.38
2022-07-26T21:27:45.147Z,99885.69
2022-07-26T21:30:12.350Z,99889.44
2022-07-26T21:32:39.092Z,99883.19
2022-07-26T21:35:06.474Z,99871.22
2022-07-26T21:37:33.234Z,99881.78
2022-07-26T21:40:00.906Z,99878.53
2022-07-26T21:42:28.345Z,99886.34
2022-07-26T21:44:55.004Z,99887.94
2022-07-26T21:47:21.689Z,99889.03
2022-07-26T21:49:49.166Z,99894.97
2022-07-26T21:52:16.979Z,99885.13
2022-07-26T21:54:43.681Z,99887.28
2022-07-26T21:57:10.699Z,99892.16
2022-07-26T21:59:37.355Z,99880.75
2022-07-26T22:02:04.144Z,99887.22
2022-07-26T22:04:31.284Z,99889.94
2022-07-26T22:06:57.954Z,99890.16
2022-07-26T22:09:24.780Z,99882.81
2022-07-26T22:11:53.380Z,99896.88
2022-07-26T22:14:21.092Z,99888.47
2022-07-26T22:16:49.244Z,99900.38
2022-07-26T22:19:16.457Z,99894.16
2022-07-26T22:21:43.278Z,99893.22
2022-07-26T22:24:10.104Z,99892.44
2022-07-26T22:26:37.219Z,99887.50
2022-07-26T22:29:04.130Z,99897.28
2022-07-26T22:31:31.036Z,99896.97
2022-07-26T22:33:58.023Z,99903.72
2022-07-26T22:36:24.867Z,99899.63
2022-07-26T22:38:51.544Z,99899.06
2022-07-26T22:41:18.673Z,99883.81
2022-07-26T22:43:45.399Z,99880.56
2022-07-26T22:46:12.079Z,99884.63
2022-07-26T22:48:42.180Z,99884.34
2022-07-26T22:51:11.189Z,99878.56
2022-07-26T22:53:37.896Z,99884.03
2022-07-26T22:56:05.196Z,99878.25
2022-07-26T22:58:31.953Z,99881.78
2022-07-26T23:00:58.819Z,99882.31
2022-07-26T23:03:25.763Z,99883.09
2022-07-26T23:05:54.827Z,99871.34
2022-07-26T23:08:47.199Z,99886.56
2022-07-26T23:11:08.627Z,99872.69
2022-07-26T23:13:35.619Z,99874.28
2022-07-26T23:16:02.435Z,99874.50
2022-07-26T23:18:31.188Z,99877.25
2022-07-26T23:20:57.834Z,99877.22
2022-07-26T23:23:27.797Z,99877.75
2022-07-26T23:25:58.239Z,99876.97
2022-07-26T23:28:36.944Z,99872.81
2022-07-26T23:31:10.860Z,99868.22
2022-07-26T23:33:50.688Z,99861.94
2022-07-26T23:36:22.174Z,99864.09
2022-07-26T23:38:48.839Z,99861.91
2022-07-26T23:41:15.562Z,99879.00
2022-07-26T23:43:42.591Z,99860.75
2022-07-26T23:46:09.282Z,99873.25
2022-07-26T23:48:36.025Z,99874.34
2022-07-26T23:51:03.034Z,99872.16
2022-07-26T23:53:30.124Z,99863.47
2022-07-26T23:55:56.817Z,99857.69
2022-07-26T23:58:23.865Z,99869.38
